Terminal Aerodrome Forecast
Issued by NWS

Home | Current Version | Previous Version | Text Only | Print | Product List | Glossary On
Versions: 1 2 3 4 5 6 7 8 9 10 11 12 13 14 15 16
000
FTUS45 KFGZ 171100
TAFPRC
TAF
KPRC 171135Z 1712/1812 VRB03KT P6SM VCSH SCT040 OVC100
     FM171700 10009KT P6SM -SHRA BKN025 OVC080
      TEMPO 1719/1723 3SM TSRA OVC025CB
     FM180200 VRB06KT P6SM BKN030
     FM180900 VRB03KT P6SM VCFG BKN010=

USA.gov is the U.S. government's official web portal to all federal, state and local government web resources and services.